Time;durP1;ratioP1;P1;durP2;ratioP2;P2;SDS_P1;SDS_P2;PMS_P1;PMS_P2;Temp;Humidity;BMP_temperature;BMP_pressure;BME280_temperature;BME280_humidity;BME280_pressure;Samples;Min_cycle;Max_cycle;Signal;HPM_P1;HPM_P2
2022/06/17 00:01:45;;;;;;;0.95;0.82;;;24.50;42.50;;;28.40;27.90;102098.28;5113723;28;20120;-12
2022/06/17 00:04:10;;;;;;;0.80;0.80;;;24.50;42.60;;;28.41;27.86;102096.44;5115287;28;20046;-12
2022/06/17 00:06:49;;;;;;;1.20;1.10;;;24.50;42.50;;;28.38;27.91;102088.59;5114838;28;20071;-12
2022/06/17 00:09:19;;;;;;;0.68;0.68;;;24.50;42.50;;;28.39;27.43;102084.94;5115194;28;20046;-12
2022/06/17 00:11:45;;;;;;;0.70;0.70;;;24.50;42.50;;;28.40;27.47;102092.91;5096673;28;20501;-12
2022/06/17 00:17:22;;;;;;;0.90;0.80;;;24.50;42.50;;;28.38;27.78;102085.91;5115359;28;20055;-11
2022/06/17 00:19:49;;;;;;;0.73;0.73;;;24.40;42.50;;;28.35;27.58;102070.00;5096833;28;20353;-12
2022/06/17 00:22:14;;;;;;;0.95;0.90;;;24.50;42.50;;;28.33;27.64;102066.56;5097038;28;20104;-12
2022/06/17 00:24:40;;;;;;;0.88;0.80;;;24.50;42.50;;;28.32;27.79;102068.41;5114643;28;20039;-12
2022/06/17 00:27:10;;;;;;;0.75;0.75;;;24.50;42.50;;;28.36;27.83;102080.66;5114830;28;20077;-12
2022/06/17 00:29:36;;;;;;;0.90;0.90;;;24.40;42.50;;;28.38;27.60;102086.75;5095912;28;20051;-12
2022/06/17 00:32:02;;;;;;;1.00;0.90;;;24.40;42.50;;;28.33;27.63;102072.78;5114643;28;20044;-12
2022/06/17 00:34:29;;;;;;;0.80;0.80;;;24.50;42.50;;;28.36;27.82;102079.78;5096101;28;20149;-13
2022/06/17 00:36:59;;;;;;;0.82;0.80;;;24.50;42.60;;;28.34;27.52;102077.22;5114421;28;20048;-12
2022/06/17 00:39:29;;;;;;;0.70;0.65;;;24.40;42.50;;;28.37;27.80;102085.06;5113432;28;20052;-12
2022/06/17 00:42:03;;;;;;;0.90;0.90;;;24.50;42.50;;;28.36;27.70;102079.78;5096707;28;20557;-12
2022/06/17 00:44:54;;;;;;;1.13;1.00;;;24.40;42.50;;;28.32;27.71;102071.09;5096527;28;20070;-12
2022/06/17 00:47:31;;;;;;;0.90;0.85;;;24.40;42.50;;;28.36;27.69;102075.25;5094247;28;20044;-12
2022/06/17 00:50:13;;;;;;;0.90;0.75;;;24.40;42.50;;;28.30;27.71;102080.25;5111599;28;20052;-12
2022/06/17 00:52:50;;;;;;;0.77;0.77;;;24.40;42.50;;;28.35;27.68;102086.13;5096342;28;20068;-12
2022/06/17 00:55:30;;;;;;;1.20;0.90;;;24.40;42.50;;;28.35;27.81;102095.09;5079507;28;20050;-12
2022/06/17 00:58:00;;;;;;;0.70;0.70;;;24.40;42.50;;;28.35;27.71;102095.09;5078274;28;20078;-12
2022/06/17 01:00:27;;;;;;;0.68;0.68;;;24.40;42.50;;;28.34;27.63;102095.19;5113860;28;20054;-12
2022/06/17 01:03:04;;;;;;;0.63;0.63;;;24.40;42.50;;;28.26;27.72;102079.63;5094192;28;20139;-13
2022/06/17 01:05:46;;;;;;;0.88;0.88;;;24.40;42.50;;;28.27;27.84;102075.97;5094869;28;20054;-13
2022/06/17 01:11:31;;;;;;;1.02;0.93;;;24.40;42.50;;;28.30;27.62;102088.31;5112141;28;20118;-14
2022/06/17 01:14:00;;;;;;;0.90;0.80;;;24.40;42.50;;;28.28;27.50;102088.41;5112668;28;20055;-13
2022/06/17 01:16:33;;;;;;;0.70;0.70;;;24.40;43.10;;;28.27;27.72;102098.34;5092319;28;20051;-13
2022/06/17 01:19:31;;;;;;;0.70;0.70;;;24.40;42.60;;;28.32;27.86;102107.88;5095507;28;20104;-13
2022/06/17 01:22:25;;;;;;;1.85;0.75;;;24.40;42.50;;;28.30;27.65;102124.16;5096306;28;20059;-14
2022/06/17 01:24:57;;;;;;;0.90;0.80;;;24.40;42.60;;;28.29;27.87;102106.28;5112311;28;20048;-13
2022/06/17 01:27:30;;;;;;;0.95;0.90;;;24.40;42.60;;;28.23;27.68;102095.97;5095700;28;20051;-13
2022/06/17 01:29:56;;;;;;;0.90;0.90;;;24.40;42.60;;;28.29;27.85;102098.22;5110346;28;20051;-13
2022/06/17 01:32:28;;;;;;;1.10;0.90;;;24.40;42.60;;;28.26;27.75;102095.75;5112157;28;20047;-13
2022/06/17 01:34:54;;;;;;;1.13;1.02;;;24.40;42.60;;;28.28;27.64;102105.44;5078715;28;20052;-13
2022/06/17 01:37:20;;;;;;;0.85;0.85;;;24.40;42.60;;;28.25;27.95;102110.16;5095125;28;20043;-13
2022/06/17 01:39:46;;;;;;;0.80;0.80;;;24.40;42.60;;;28.22;27.56;102102.34;5093001;28;20052;-13
2022/06/17 01:42:12;;;;;;;0.80;0.80;;;24.40;42.60;;;28.24;27.73;102097.69;5112210;28;20088;-13
2022/06/17 01:44:41;;;;;;;1.48;1.15;;;24.30;42.60;;;28.21;27.89;102104.16;5113757;28;20043;-13
2022/06/17 01:47:14;;;;;;;0.77;0.75;;;24.40;42.60;;;28.26;27.91;102112.75;5095627;28;20097;-13
2022/06/17 01:49:49;;;;;;;1.00;0.90;;;24.40;42.60;;;28.23;27.87;102113.00;5094995;28;20054;-14
2022/06/17 01:52:25;;;;;;;1.15;0.88;;;24.30;42.60;;;28.25;27.94;102118.22;5110504;28;20483;-13
2022/06/17 01:54:59;;;;;;;0.90;0.90;;;24.40;42.60;;;28.20;27.67;102106.94;5094805;28;20067;-13
2022/06/17 01:57:35;;;;;;;0.90;0.90;;;24.30;42.60;;;28.26;27.60;102119.97;5078541;28;20043;-14
2022/06/17 02:00:21;;;;;;;0.85;0.80;;;24.30;42.60;;;28.24;27.89;102116.53;5094924;28;20376;-13
2022/06/17 02:02:53;;;;;;;0.98;0.85;;;24.40;42.60;;;28.21;27.82;102109.53;5093289;28;20048;-14
2022/06/17 02:05:21;;;;;;;0.75;0.75;;;24.30;42.60;;;28.26;27.92;102110.03;5113421;28;20055;-13
2022/06/17 02:07:57;;;;;;;1.05;0.90;;;24.30;42.60;;;28.19;27.71;102106.09;5092825;28;20056;-13
2022/06/17 02:10:36;;;;;;;0.93;0.88;;;24.40;42.70;;;28.23;27.67;102120.19;5092683;28;20055;-13
2022/06/17 02:13:05;;;;;;;0.88;0.88;;;24.40;42.70;;;28.21;27.85;102117.59;5112991;28;20114;-13
2022/06/17 02:15:43;;;;;;;0.80;0.80;;;24.30;42.60;;;28.23;27.51;102122.88;5093410;28;20051;-13
2022/06/17 02:18:19;;;;;;;0.93;0.90;;;24.30;42.60;;;28.21;27.63;102122.13;5094626;28;20134;-13
2022/06/17 02:21:02;;;;;;;1.27;0.85;;;24.30;42.60;;;28.23;27.93;102130.94;5079272;28;20073;-13
2022/06/17 02:23:29;;;;;;;0.80;0.77;;;24.30;42.60;;;28.21;27.73;102116.75;5116466;28;20107;-13
2022/06/17 02:25:57;;;;;;;0.70;0.70;;;24.30;42.60;;;28.23;28.00;102126.44;5098715;28;20074;-13
2022/06/17 02:28:29;;;;;;;0.90;0.90;;;24.30;42.60;;;28.24;27.90;102125.44;5081625;28;20483;-13
2022/06/17 02:30:57;;;;;;;0.90;0.90;;;24.30;42.60;;;28.22;27.75;102123.84;5113682;28;20048;-13
2022/06/17 02:33:23;;;;;;;1.35;1.00;;;24.30;42.60;;;28.22;27.60;102119.31;5098635;28;20047;-13
2022/06/17 02:35:54;;;;;;;0.93;0.70;;;24.30;42.70;;;28.16;27.81;102114.38;5098014;28;20047;-13
2022/06/17 02:38:29;;;;;;;0.98;0.98;;;24.30;42.60;;;28.16;27.96;102110.84;5098091;28;20047;-13
2022/06/17 02:41:06;;;;;;;1.00;0.95;;;24.30;42.60;;;28.22;27.77;102118.47;5078852;28;20509;-13
2022/06/17 02:44:01;;;;;;;1.23;1.13;;;24.30;42.60;;;28.22;27.79;102119.31;5080931;28;20467;-13
2022/06/17 02:46:30;;;;;;;1.63;1.20;;;24.30;42.60;;;28.23;27.58;102114.81;5096592;28;20506;-13
2022/06/17 02:49:07;;;;;;;1.15;1.00;;;24.30;42.70;;;28.18;27.58;102111.59;5096237;28;20069;-13
2022/06/17 02:51:38;;;;;;;0.90;0.90;;;24.30;42.70;;;28.19;27.63;102108.78;5098346;28;20055;-13
2022/06/17 02:54:05;;;;;;;0.90;0.80;;;24.30;43.20;;;28.22;27.98;102115.78;5080021;28;20051;-13
2022/06/17 02:56:35;;;;;;;0.90;0.90;;;24.30;42.60;;;28.21;27.75;102106.00;5097747;28;20140;-13
2022/06/17 02:59:15;;;;;;;0.98;0.90;;;24.30;42.60;;;28.14;27.71;102091.28;5098132;28;20046;-13
2022/06/17 03:01:54;;;;;;;0.93;0.80;;;24.30;42.60;;;28.17;27.83;102088.38;5097957;28;20047;-13
2022/06/17 03:04:35;;;;;;;0.77;0.77;;;24.30;42.60;;;28.19;27.72;102097.19;5097752;28;20069;-13
2022/06/17 03:07:30;;;;;;;0.80;0.80;;;24.30;42.70;;;28.16;27.93;102098.25;5113963;28;20645;-13
2022/06/17 03:10:16;;;;;;;0.73;0.73;;;24.30;42.60;;;28.22;27.88;102105.03;5096689;28;20047;-13
2022/06/17 03:12:43;;;;;;;0.73;0.73;;;24.30;43.10;;;28.22;27.99;102108.56;5095760;28;20051;-13
2022/06/17 03:15:13;;;;;;;1.10;0.90;;;24.30;42.60;;;28.15;27.79;102091.19;5097496;28;20128;-13
2022/06/17 03:17:44;;;;;;;0.80;0.80;;;24.30;42.60;;;28.20;27.76;102101.56;5097839;28;20153;-13
2022/06/17 03:20:21;;;;;;;0.70;0.70;;;24.40;42.60;;;28.23;27.81;102107.63;5114405;28;20062;-13
2022/06/17 03:22:51;;;;;;;1.00;0.90;;;24.40;42.50;;;28.23;27.83;102110.31;5095113;28;20396;-13
2022/06/17 03:25:38;;;;;;;0.80;0.80;;;24.40;42.50;;;28.21;27.63;102098.78;5096212;28;20047;-13
2022/06/17 03:28:13;;;;;;;0.90;0.90;;;24.40;42.40;;;28.29;27.62;102111.66;5078897;28;20082;-13
2022/06/17 03:30:54;;;;;;;1.08;0.88;;;24.40;42.40;;;28.28;28.03;102102.75;5114272;28;20388;-13
2022/06/17 03:33:44;;;;;;;0.80;0.80;;;24.50;42.40;;;28.32;27.67;102110.56;5079643;28;20044;-13
2022/06/17 03:36:25;;;;;;;1.00;0.88;;;24.50;42.30;;;28.33;27.63;102105.06;5097117;28;20134;-13
2022/06/17 03:38:57;;;;;;;0.95;0.95;;;24.50;42.30;;;28.36;27.50;102095.94;5096190;28;20094;-13
2022/06/17 03:41:51;;;;;;;1.13;1.02;;;24.60;42.30;;;28.42;27.65;102103.56;5097358;28;20092;-13
2022/06/17 03:44:21;;;;;;;0.95;0.90;;;24.60;42.20;;;28.41;27.68;102107.22;5080185;28;20043;-13
2022/06/17 03:47:15;;;;;;;0.98;0.98;;;24.70;42.20;;;28.48;27.54;102111.16;5114326;28;20050;-13
2022/06/17 03:49:49;;;;;;;0.82;0.82;;;24.70;42.10;;;28.49;27.50;102106.66;5079472;28;20048;-12
2022/06/17 03:53:04;;;;;;;1.10;0.90;;;24.80;42.00;;;28.61;27.46;102114.66;5097086;28;20047;-12
2022/06/17 03:55:31;;;;;;;0.95;0.90;;;24.90;41.90;;;28.66;27.59;102121.56;5069113;28;20112;-13
2022/06/17 03:58:01;;;;;;;0.75;0.75;;;25.00;41.80;;;28.67;27.41;102109.78;5095792;28;20404;-13
2022/06/17 04:01:11;;;;;;;0.85;0.80;;;25.00;41.80;;;28.68;27.63;102108.84;5095171;28;20051;-12
2022/06/17 04:03:40;;;;;;;0.80;0.80;;;25.10;41.70;;;28.76;27.24;102106.41;5078540;28;20048;-13
2022/06/17 04:06:19;;;;;;;0.68;0.68;;;25.10;41.60;;;28.79;27.18;102106.19;5096718;28;20460;-12
2022/06/17 04:08:57;;;;;;;1.20;1.10;;;25.20;41.60;;;28.77;27.25;102100.91;5096876;28;20047;-12
2022/06/17 04:11:36;;;;;;;0.85;0.85;;;25.20;41.50;;;28.86;27.54;102106.59;5097107;28;20151;-12
2022/06/17 04:14:13;;;;;;;0.75;0.75;;;25.20;41.50;;;28.90;27.18;102110.75;5114138;28;20054;-12
2022/06/17 04:16:46;;;;;;;0.82;0.82;;;25.20;41.40;;;28.92;27.13;102106.09;5113502;28;20054;-12
2022/06/17 04:19:21;;;;;;;0.70;0.70;;;25.30;41.50;;;28.90;27.30;102102.66;5095117;28;20073;-12
2022/06/17 04:22:25;;;;;;;0.80;0.80;;;25.30;41.40;;;28.98;27.22;102105.63;5113540;28;20058;-12
2022/06/17 04:25:18;;;;;;;0.80;0.80;;;25.40;41.40;;;28.97;27.16;102102.09;5097105;28;20036;-12
2022/06/17 04:27:57;;;;;;;0.80;0.80;;;25.40;41.40;;;28.99;27.08;102104.66;5112649;28;20143;-12
2022/06/17 04:30:28;;;;;;;0.75;0.75;;;25.40;41.30;;;29.04;27.13;102107.84;5077581;28;20117;-12
2022/06/17 04:33:02;;;;;;;1.42;0.80;;;25.40;41.30;;;29.04;27.39;102104.31;5096394;28;20048;-13
2022/06/17 04:35:28;;;;;;;0.90;0.90;;;25.40;41.90;;;29.12;26.98;102115.31;5094888;28;20181;-12
2022/06/17 04:37:55;;;;;;;0.70;0.70;;;25.40;41.30;;;29.13;27.22;102106.28;5095871;28;20040;-12
2022/06/17 04:40:48;;;;;;;1.00;0.90;;;25.50;41.30;;;29.14;27.20;102111.53;5114468;28;20089;-11
2022/06/17 04:43:44;;;;;;;0.88;0.82;;;25.50;41.20;;;29.14;27.02;102110.69;5114540;28;20509;-12
2022/06/17 04:46:17;;;;;;;0.90;0.90;;;25.60;41.30;;;29.19;27.42;102108.53;5078563;28;20449;-12
2022/06/17 04:48:44;;;;;;;0.90;0.80;;;25.60;41.20;;;29.26;27.21;102114.31;5110697;28;20067;-13
2022/06/17 04:51:11;;;;;;;0.90;0.90;;;25.60;41.10;;;29.25;26.99;102109.88;5095879;28;20082;-13
2022/06/17 04:53:44;;;;;;;0.98;0.90;;;25.70;41.10;;;29.31;27.14;102115.66;5096269;28;20044;-12
2022/06/17 04:56:39;;;;;;;0.80;0.80;;;25.70;41.00;;;29.35;26.96;102106.38;5076952;28;20041;-13
2022/06/17 04:59:44;;;;;;;0.73;0.73;;;25.80;41.00;;;29.35;27.13;102109.06;5098645;28;20059;-12
2022/06/17 05:02:23;;;;;;;0.90;0.80;;;25.80;40.90;;;29.40;26.79;102114.06;5096036;28;20048;-13
2022/06/17 05:05:44;;;;;;;;;;;25.90;40.90;;;29.59;26.87;102113.47;5091023;28;20048;-13
2022/06/17 05:08:26;;;;;;;0.80;0.80;;;25.90;40.80;;;29.46;26.86;102101.97;5113879;28;19957;-13
2022/06/17 05:11:07;;;;;;;0.85;0.80;;;25.90;40.80;;;29.48;26.69;102110.78;5095597;28;20547;-13
2022/06/17 05:13:56;;;;;;;0.90;0.90;;;25.90;40.80;;;29.53;26.71;102117.50;5092100;28;20458;-13
2022/06/17 05:16:22;;;;;;;0.70;0.70;;;25.90;40.80;;;29.57;26.80;102126.22;5114012;28;20043;-13
2022/06/17 05:18:50;;;;;;;1.30;1.00;;;25.90;40.80;;;29.60;26.68;102125.09;5095581;28;20071;-13
2022/06/17 05:21:22;;;;;;;0.80;0.80;;;25.90;40.70;;;29.59;26.83;102123.38;5095252;28;20058;-13
2022/06/17 05:23:54;;;;;;;1.05;0.98;;;26.00;40.70;;;29.64;26.59;102132.00;5096077;28;20043;-13
2022/06/17 05:26:20;;;;;;;0.80;0.80;;;26.00;40.70;;;29.66;26.66;102130.88;5095427;28;20044;-13
2022/06/17 05:28:47;;;;;;;0.70;0.70;;;26.00;40.70;;;29.70;26.75;102135.06;5095568;28;20047;-13
2022/06/17 05:31:25;;;;;;;1.10;1.00;;;26.00;40.60;;;29.65;26.61;102134.53;5095182;28;20050;-13
2022/06/17 05:33:56;;;;;;;0.88;0.80;;;26.10;40.60;;;29.77;26.53;102138.16;5095265;28;20051;-13
2022/06/17 05:36:23;;;;;;;0.90;0.90;;;26.10;40.60;;;29.79;26.38;102141.56;5095224;28;20056;-13
2022/06/17 05:38:50;;;;;;;0.95;0.95;;;26.10;40.60;;;29.77;26.64;102135.44;5109907;28;20438;-13
2022/06/17 05:41:20;;;;;;;0.95;0.93;;;26.10;40.50;;;29.81;26.54;102136.06;5095578;28;20083;-13
2022/06/17 05:43:48;;;;;;;0.80;0.80;;;26.10;40.50;;;29.87;26.37;102133.72;5095326;28;20409;-13
2022/06/17 05:46:21;;;;;;;0.82;0.82;;;26.20;40.40;;;29.91;26.45;102137.03;5095537;28;20168;-13
2022/06/17 05:49:06;;;;;;;0.80;0.80;;;26.30;40.40;;;29.90;26.56;102128.09;5095620;28;20083;-14
2022/06/17 05:51:42;;;;;;;0.90;0.90;;;26.30;40.30;;;29.98;26.29;102127.44;5092863;28;20485;-13
2022/06/17 05:54:20;;;;;;;0.93;0.70;;;26.30;40.30;;;30.01;26.28;102129.91;5111837;28;20411;-13
2022/06/17 05:56:56;;;;;;;0.75;0.75;;;26.40;40.20;;;30.03;26.18;102130.63;5112402;28;20550;-13
2022/06/17 05:59:22;;;;;;;0.80;0.80;;;26.40;40.20;;;30.03;26.08;102127.94;5094441;28;20036;-14
2022/06/17 06:01:48;;;;;;;0.90;0.90;;;26.40;40.20;;;30.09;25.98;102132.84;5093847;28;20044;-13
2022/06/17 06:04:26;;;;;;;1.10;1.00;;;26.50;40.10;;;30.12;26.15;102134.41;5094848;28;20052;-13
2022/06/17 06:06:52;;;;;;;0.98;0.80;;;26.50;40.20;;;30.14;26.08;102131.59;5113422;28;20050;-13
2022/06/17 06:09:18;;;;;;;1.33;0.85;;;26.40;40.10;;;30.16;26.10;102132.34;5111540;28;20142;-13
2022/06/17 06:11:44;;;;;;;0.68;0.68;;;26.40;40.80;;;30.15;26.03;102127.91;5111746;28;20048;-13
2022/06/17 06:14:11;;;;;;;0.70;0.70;;;26.40;40.20;;;30.19;26.09;102134.75;5094573;28;20078;-13
2022/06/17 06:16:38;;;;;;;0.77;0.60;;;26.40;40.20;;;30.18;26.12;102133.91;5113168;28;20391;-13
2022/06/17 06:19:05;;;;;;;0.70;0.70;;;26.40;40.20;;;30.23;26.08;102137.09;5093567;28;20105;-13
2022/06/17 06:21:32;;;;;;;0.80;0.80;;;26.50;40.20;;;30.23;25.96;102138.94;5110203;28;20072;-13
2022/06/17 06:23:59;;;;;;;0.80;0.80;;;26.50;40.20;;;30.25;25.96;102131.56;5094438;28;20376;-13
2022/06/17 06:26:35;;;;;;;0.88;0.88;;;26.60;40.20;;;30.32;25.91;102143.56;5094353;28;20082;-13
2022/06/17 06:29:17;;;;;;;0.68;0.68;;;26.60;40.20;;;30.34;25.95;102149.72;5091864;28;20197;-13
2022/06/17 06:31:44;;;;;;;0.60;0.60;;;26.60;40.10;;;30.36;26.16;102155.00;5094115;28;20083;-13
2022/06/17 06:34:26;;;;;;;0.80;0.80;;;26.60;40.10;;;30.33;25.86;102141.75;5094654;28;20050;-13
2022/06/17 06:36:51;;;;;;;0.80;0.80;;;26.60;40.00;;;30.41;25.82;102150.94;5112767;28;20047;-13
2022/06/17 06:39:19;;;;;;;0.70;0.70;;;26.70;40.10;;;30.43;25.75;102148.13;5111003;28;20484;-13
2022/06/17 06:41:46;;;;;;;1.10;1.00;;;26.70;40.00;;;30.46;25.84;102161.38;5111176;28;20051;-13
2022/06/17 06:44:12;;;;;;;0.73;0.73;;;26.70;40.00;;;30.44;25.78;102156.09;5093946;28;20043;-13
2022/06/17 06:46:57;;;;;;;0.82;0.82;;;26.70;39.90;;;30.51;25.71;102164.53;5112436;28;20055;-13
2022/06/17 06:49:30;;;;;;;0.60;0.60;;;26.80;39.90;;;30.53;25.64;102159.88;5111340;28;20051;-13
2022/06/17 06:51:56;;;;;;;0.80;0.80;;;26.80;39.80;;;30.56;25.64;102164.16;5094287;28;20052;-13
2022/06/17 06:54:22;;;;;;;1.15;1.00;;;26.80;39.80;;;30.54;25.71;102149.91;5094226;28;20464;-13
2022/06/17 06:56:50;;;;;;;0.80;0.80;;;26.80;39.80;;;30.59;25.75;102158.50;5092517;28;20044;-13
2022/06/17 06:59:16;;;;;;;0.90;0.90;;;26.90;39.80;;;30.62;25.55;102153.72;5112562;28;20089;-13
2022/06/17 07:01:42;;;;;;;0.80;0.80;;;26.90;39.70;;;30.58;25.63;102149.53;5093852;28;20248;-12
2022/06/17 07:04:08;;;;;;;1.00;0.90;;;26.90;39.70;;;30.67;25.55;102153.31;5112194;28;20043;-13
2022/06/17 07:06:35;;;;;;;0.68;0.68;;;26.90;39.70;;;30.64;25.44;102137.41;5077492;28;20493;-13
2022/06/17 07:09:02;;;;;;;1.08;0.98;;;26.90;39.70;;;30.68;25.71;102141.53;5096257;28;20063;-13
2022/06/17 07:11:28;;;;;;;0.90;0.90;;;26.90;39.60;;;30.72;25.46;102140.28;5115460;28;20074;-13
2022/06/17 07:13:54;;;;;;;0.55;0.55;;;27.00;39.60;;;30.72;25.36;102123.22;5114031;28;20036;-13
2022/06/17 07:16:19;;;;;;;0.70;0.70;;;27.00;39.60;;;30.73;25.38;102131.22;5115596;28;20083;-13
2022/06/17 07:18:46;;;;;;;0.70;0.70;;;27.00;39.50;;;30.75;25.40;102133.78;5115355;28;20501;-13
2022/06/17 07:21:14;;;;;;;0.73;0.73;;;27.00;39.50;;;30.78;25.42;102130.81;5115395;28;20057;-13
2022/06/17 07:23:46;;;;;;;1.10;1.00;;;27.10;39.50;;;30.78;25.17;102123.56;5115777;28;20059;-13
2022/06/17 07:26:24;;;;;;;0.70;0.70;;;27.10;39.50;;;30.77;25.31;102116.47;5115825;28;20044;-13
2022/06/17 07:28:52;;;;;;;1.08;0.98;;;27.10;39.50;;;30.82;25.23;102119.63;5115376;28;20484;-13
2022/06/17 07:31:20;;;;;;;0.82;0.77;;;27.10;39.40;;;30.84;25.41;102120.34;5115304;28;20040;-13
2022/06/17 07:33:46;;;;;;;0.80;0.80;;;27.10;39.40;;;30.88;25.26;102134.44;5115201;28;20074;-13
2022/06/17 07:39:53;;;;;;;0.80;0.80;;;27.10;39.40;;;30.91;25.39;102130.66;5115372;28;20114;-13
2022/06/17 07:41:52;;;;;;;0.90;0.90;;;27.10;39.40;;;30.91;24.99;102122.53;5115557;28;20493;-13
2022/06/17 07:44:18;;;;;;;0.80;0.80;;;27.10;39.50;;;30.87;25.04;102108.41;5096787;28;20050;-13
2022/06/17 07:46:45;;;;;;;0.80;0.80;;;27.10;39.50;;;30.93;25.10;102123.25;5114821;28;20048;-12
2022/06/17 07:49:11;;;;;;;0.75;0.75;;;27.10;39.50;;;30.90;25.07;102118.97;5115689;28;20039;-12
2022/06/17 07:51:37;;;;;;;0.75;0.75;;;27.10;39.40;;;30.90;25.11;102118.97;5115195;28;20050;-12
2022/06/17 07:54:03;;;;;;;1.23;1.05;;;27.10;39.40;;;30.89;25.09;102114.56;5115373;28;20134;-13
2022/06/17 07:56:29;;;;;;;1.10;1.00;;;27.10;39.50;;;30.87;25.16;102113.81;5095492;28;20044;-13
2022/06/17 07:58:55;;;;;;;1.02;1.00;;;27.10;39.50;;;30.92;25.07;102125.09;5115287;28;20135;-13
2022/06/17 08:01:21;;;;;;;1.05;0.95;;;27.10;39.50;;;30.92;25.29;102122.38;5114898;28;20503;-13
2022/06/17 08:03:48;;;;;;;0.80;0.80;;;27.10;40.10;;;30.91;25.23;102118.00;5096696;28;20063;-13
2022/06/17 08:06:16;;;;;;;1.00;1.00;;;27.10;39.50;;;30.84;25.19;102106.00;5096218;28;20126;-12
2022/06/17 08:08:43;;;;;;;0.98;0.98;;;27.10;39.60;;;30.89;25.27;102108.28;5114845;28;20047;-12
2022/06/17 08:11:10;;;;;;;0.73;0.73;;;27.00;39.50;;;30.91;25.08;102114.44;5114847;28;20048;-13
2022/06/17 08:13:36;;;;;;;1.25;0.90;;;27.00;39.60;;;30.89;25.25;102105.59;5114914;28;20040;-12
2022/06/17 08:16:06;;;;;;;0.85;0.80;;;27.00;39.50;;;30.84;25.16;102106.84;5114516;28;20061;-13
2022/06/17 08:18:33;;;;;;;0.90;0.90;;;27.00;39.50;;;30.90;25.26;102112.72;5114542;28;20488;-12
2022/06/17 08:20:59;;;;;;;1.45;1.00;;;27.10;39.60;;;30.87;25.17;102107.56;5113338;28;20491;-13
2022/06/17 08:23:25;;;;;;;1.08;1.02;;;27.00;39.50;;;30.89;25.35;102108.28;5114832;28;20063;-13
2022/06/17 08:25:51;;;;;;;1.38;1.10;;;27.00;39.60;;;30.88;25.30;102104.75;5114526;28;20039;-13
2022/06/17 08:28:18;;;;;;;0.70;0.70;;;27.00;39.60;;;30.80;25.17;102091.88;5114439;28;20043;-12
2022/06/17 08:30:52;;;;;;;0.75;0.75;;;26.90;39.70;;;30.75;25.44;102091.41;5114225;28;20082;-13
2022/06/17 08:33:27;;;;;;;1.00;0.90;;;26.90;39.80;;;30.80;25.28;102101.84;5115041;28;20043;-13
2022/06/17 08:35:58;;;;;;;1.23;0.90;;;26.80;39.80;;;30.77;25.48;102102.97;5114986;28;20204;-13
2022/06/17 08:38:28;;;;;;;;;;;26.80;39.80;;;30.82;25.15;102084.53;5115183;28;20086;-13
2022/06/17 08:40:59;;;;;;;1.23;1.10;;;26.80;39.90;;;30.82;25.06;102089.06;5114229;28;19919;-12
2022/06/17 08:43:53;;;;;;;0.90;0.90;;;26.80;39.90;;;30.77;25.45;102081.38;5114482;28;20048;-13
2022/06/17 08:46:59;;;;;;;1.13;1.02;;;26.80;39.80;;;30.75;25.35;102083.31;5114473;28;20467;-12
2022/06/17 08:49:53;;;;;;;1.30;1.20;;;26.80;39.90;;;30.66;25.34;102078.72;5095250;28;20081;-12
2022/06/17 08:52:45;;;;;;;0.85;0.85;;;26.70;39.90;;;30.66;25.49;102084.13;5114192;28;20122;-13
2022/06/17 08:55:24;;;;;;;1.73;1.10;;;26.70;40.00;;;30.58;25.33;102081.22;5114343;28;20507;-13
2022/06/17 08:58:31;;;;;;;0.80;0.80;;;26.70;40.00;;;30.61;25.45;102087.22;5114061;28;20403;-12
2022/06/17 09:01:07;;;;;;;0.70;0.70;;;26.70;40.10;;;30.57;25.67;102091.16;5113734;28;20052;-12
2022/06/17 09:04:07;;;;;;;1.08;0.98;;;26.60;40.10;;;30.54;25.49;102091.41;5113956;28;20559;-13
2022/06/17 09:06:36;;;;;;;1.15;1.08;;;26.60;40.10;;;30.54;25.42;102094.13;5113835;28;20109;-12
2022/06/17 09:09:13;;;;;;;1.05;1.00;;;26.60;40.20;;;30.52;25.56;102093.38;5113472;28;20048;-12
2022/06/17 09:12:36;;;;;;;0.80;0.80;;;26.60;40.20;;;30.51;25.64;102082.72;5114025;28;20067;-12
2022/06/17 09:16:04;;;;;;;1.10;0.93;;;26.60;40.20;;;30.54;25.60;102085.13;5040083;28;20506;-12
2022/06/17 09:18:41;;;;;;;1.25;1.10;;;26.60;40.20;;;30.50;25.51;102081.00;5086369;28;20047;-12
2022/06/17 09:21:26;;;;;;;0.93;0.90;;;26.50;40.20;;;30.46;25.74;102083.94;5094124;28;20072;-12
2022/06/17 09:23:55;;;;;;;0.90;0.90;;;26.50;40.20;;;30.46;25.56;102075.00;5113486;28;20514;-12
2022/06/17 09:26:27;;;;;;;0.93;0.93;;;26.50;40.30;;;30.41;25.65;102077.25;5095382;28;20072;-12
2022/06/17 09:29:02;;;;;;;1.20;1.10;;;26.50;40.20;;;30.41;25.66;102079.94;5095347;28;20047;-12
2022/06/17 09:31:42;;;;;;;0.90;0.90;;;26.50;40.30;;;30.35;25.76;102066.91;5094909;28;20495;-12
2022/06/17 09:34:42;;;;;;;0.98;0.93;;;26.50;40.30;;;30.43;25.73;102086.91;5112124;28;20108;-12
2022/06/17 09:37:16;;;;;;;1.20;1.10;;;26.50;40.30;;;30.41;25.76;102085.34;5113827;28;20083;-13
2022/06/17 09:39:50;;;;;;;1.17;1.08;;;26.50;40.30;;;30.41;25.51;102079.94;5094240;28;20047;-13
2022/06/17 09:42:31;;;;;;;1.00;0.95;;;26.50;40.30;;;30.35;25.75;102066.91;5113321;28;20083;-12
2022/06/17 09:45:01;;;;;;;;;;;26.50;40.30;;;30.54;25.58;102074.34;5094408;28;20135;-13
2022/06/17 09:47:37;;;;;;;1.35;0.77;;;26.50;40.30;;;30.46;25.52;102075.00;5095370;28;19915;-13
2022/06/17 09:50:09;;;;;;;0.98;0.98;;;26.50;40.30;;;30.44;25.65;102082.38;5111874;28;20074;-12
2022/06/17 09:52:55;;;;;;;1.20;1.10;;;26.50;40.20;;;30.40;25.80;102073.66;5113791;28;20070;-13
2022/06/17 09:55:29;;;;;;;1.58;1.00;;;26.50;40.20;;;30.40;25.88;102087.16;5112865;28;20071;-12
2022/06/17 09:58:06;;;;;;;1.17;1.08;;;26.50;40.30;;;30.37;25.78;102079.34;5112803;28;20051;-13
2022/06/17 10:00:56;;;;;;;1.02;0.93;;;26.50;40.30;;;30.39;25.55;102088.16;5112823;28;20047;-13
2022/06/17 10:03:30;;;;;;;1.13;0.90;;;26.50;40.30;;;30.39;25.68;102076.47;5112992;28;20048;-13
2022/06/17 10:06:21;;;;;;;1.27;1.00;;;26.50;40.30;;;30.40;25.80;102080.91;5112981;28;20127;-13
2022/06/17 10:09:26;;;;;;;1.05;0.90;;;26.50;40.30;;;30.39;25.80;102082.75;5112957;28;20079;-13
2022/06/17 10:12:24;;;;;;;0.90;0.90;;;26.40;40.20;;;30.36;25.73;102071.34;5113205;28;20545;-12
2022/06/17 10:15:03;;;;;;;0.90;0.90;;;26.50;40.30;;;30.37;25.77;102083.88;5111556;28;20069;-13
2022/06/17 10:18:33;;;;;;;1.52;1.05;;;26.50;40.30;;;30.40;25.83;102089.00;5112868;28;20074;-13
2022/06/17 10:21:47;;;;;;;1.30;1.20;;;26.50;40.30;;;30.37;25.75;102095.53;5014188;28;20122;-13
2022/06/17 10:24:38;;;;;;;0.90;0.90;;;26.50;40.40;;;30.32;25.87;102083.34;5099872;28;20069;-13
2022/06/17 10:27:47;;;;;;;0.90;0.90;;;26.50;40.40;;;30.36;25.80;102092.94;5111592;28;20047;-13
2022/06/17 10:30:21;;;;;;;1.10;1.00;;;26.50;40.40;;;30.29;25.75;102073.69;5112590;28;20051;-13
2022/06/17 10:32:50;;;;;;;1.63;1.35;;;26.40;40.30;;;30.31;25.87;102066.31;5112624;28;20054;-12
2022/06/17 10:35:29;;;;;;;1.00;0.90;;;26.40;40.30;;;30.31;25.80;102074.41;5111125;28;20423;-13
2022/06/17 10:37:58;;;;;;;0.82;0.82;;;26.40;40.30;;;30.29;25.82;102066.44;5093111;28;20044;-13
2022/06/17 10:40:29;;;;;;;0.98;0.88;;;26.40;40.30;;;30.34;25.83;102073.28;5112225;28;20073;-13
2022/06/17 10:43:02;;;;;;;1.73;1.20;;;26.40;40.30;;;30.31;25.78;102058.22;5094106;28;20133;-13
2022/06/17 10:45:28;;;;;;;1.05;1.00;;;26.40;40.30;;;30.33;25.68;102069.75;5096649;28;20040;-13
2022/06/17 10:48:11;;;;;;;0.90;0.90;;;26.40;40.30;;;30.35;25.86;102069.63;5097793;28;20047;-13
2022/06/17 10:50:36;;;;;;;1.13;1.02;;;26.50;40.40;;;30.37;25.71;102067.66;5114023;28;20058;-12
2022/06/17 10:53:28;;;;;;;1.20;1.10;;;26.50;40.40;;;30.30;25.93;102060.09;5115771;28;20048;-12
2022/06/17 10:56:00;;;;;;;0.88;0.88;;;26.40;40.30;;;30.32;25.89;102059.06;5116475;28;20051;-13
2022/06/17 10:58:30;;;;;;;1.35;1.25;;;26.50;40.40;;;30.34;25.87;102066.06;5115754;28;20050;-13